Time;durP1;ratioP1;P1;durP2;ratioP2;P2;SDS_P1;SDS_P2;PMS_P1;PMS_P2;Temp;Humidity;BMP_temperature;BMP_pressure;BME280_temperature;BME280_humidity;BME280_pressure;Samples;Min_cycle;Max_cycle;Signal;HPM_P1;HPM_P2
2023/03/30 00:01:30;;;;;;;1999.90;999.90;;;13.50;99.90;;;;;;5047324;28;20464;-69
2023/03/30 00:03:57;;;;;;;1999.90;999.90;;;13.00;99.90;;;;;;5046766;28;20491;-68
2023/03/30 00:06:25;;;;;;;1999.90;999.90;;;12.80;99.90;;;;;;5038487;28;20800;-71
2023/03/30 00:08:56;;;;;;;1999.90;999.90;;;12.70;99.90;;;;;;5047038;28;20433;-72
2023/03/30 00:11:25;;;;;;;1999.90;999.90;;;12.50;99.90;;;;;;5044019;28;20564;-70
2023/03/30 00:13:52;;;;;;;1999.90;999.90;;;12.60;99.90;;;;;;5040515;28;20786;-70
2023/03/30 00:16:20;;;;;;;1999.90;999.90;;;12.60;99.90;;;;;;5043295;28;20425;-70
2023/03/30 00:18:47;;;;;;;1999.90;999.90;;;13.00;99.90;;;;;;5046758;28;20516;-71
2023/03/30 00:21:16;;;;;;;1999.90;999.90;;;12.80;99.90;;;;;;5047952;28;20437;-71
2023/03/30 00:23:45;;;;;;;1999.90;999.90;;;12.90;99.90;;;;;;5042300;28;20462;-71
2023/03/30 00:26:12;;;;;;;1999.90;999.90;;;12.90;99.90;;;;;;5035552;28;20470;-72
2023/03/30 00:28:41;;;;;;;1999.90;999.90;;;12.80;99.90;;;;;;5044784;28;20520;-71
2023/03/30 00:31:09;;;;;;;1999.90;999.90;;;12.80;99.90;;;;;;5047624;28;20429;-71
2023/03/30 00:33:36;;;;;;;1999.90;999.90;;;12.80;99.90;;;;;;5042725;28;20492;-74
2023/03/30 00:36:02;;;;;;;1999.90;999.90;;;12.70;99.90;;;;;;5035862;28;20957;-72
2023/03/30 00:38:29;;;;;;;1999.90;999.90;;;12.70;99.90;;;;;;5044006;28;20437;-71
2023/03/30 00:40:58;;;;;;;1999.90;999.90;;;12.70;99.90;;;;;;5046271;28;20535;-70
2023/03/30 00:43:26;;;;;;;1999.90;999.90;;;12.80;99.90;;;;;;5041967;28;20988;-69
2023/03/30 00:45:55;;;;;;;1999.90;999.90;;;12.70;99.90;;;;;;5036086;28;20427;-71
2023/03/30 00:48:26;;;;;;;1999.90;999.90;;;12.70;99.90;;;;;;5046720;28;20846;-71
2023/03/30 00:50:55;;;;;;;1999.90;999.90;;;12.60;99.90;;;;;;5046086;28;20843;-71
2023/03/30 00:53:25;;;;;;;1999.90;999.90;;;12.40;99.90;;;;;;5046883;28;20433;-71
2023/03/30 00:55:53;;;;;;;1999.90;999.90;;;12.50;99.90;;;;;;5036049;28;20435;-71
2023/03/30 00:58:21;;;;;;;1999.90;999.90;;;12.40;99.90;;;;;;5040759;28;20428;-73
2023/03/30 01:00:49;;;;;;;1999.90;999.90;;;12.30;99.90;;;;;;5047448;28;20429;-70
2023/03/30 01:03:22;;;;;;;1999.90;999.90;;;12.20;99.90;;;;;;5045091;28;21138;-71
2023/03/30 01:05:49;;;;;;;1999.90;999.90;;;12.20;99.90;;;;;;5037968;28;20443;-71
2023/03/30 01:08:17;;;;;;;1999.90;999.90;;;12.10;99.90;;;;;;5039240;28;20492;-71
2023/03/30 01:10:44;;;;;;;1999.90;999.90;;;12.20;99.90;;;;;;5039507;28;20507;-71
2023/03/30 01:13:11;;;;;;;1999.90;999.90;;;12.00;99.90;;;;;;5046159;28;20450;-71
2023/03/30 01:15:43;;;;;;;1999.90;999.90;;;11.90;99.90;;;;;;5046408;28;20425;-73
2023/03/30 01:18:22;;;;;;;1999.90;999.90;;;11.90;99.90;;;;;;5041714;28;20504;-71
2023/03/30 01:21:23;;;;;;;1999.90;999.90;;;11.60;99.90;;;;;;5046022;28;20482;-72
2023/03/30 01:24:20;;;;;;;1999.90;999.90;;;11.70;99.90;;;;;;5048361;28;20444;-72
2023/03/30 01:26:55;;;;;;;1999.90;999.90;;;11.60;99.90;;;;;;5041047;28;20431;-71
2023/03/30 01:29:38;;;;;;;1999.90;999.90;;;11.60;99.90;;;;;;5050737;28;20475;-73
2023/03/30 01:32:34;;;;;;;1999.90;999.90;;;11.60;99.90;;;;;;5050113;28;20997;-70
2023/03/30 01:35:43;;;;;;;1999.90;999.90;;;11.50;99.90;;;;;;5047521;28;20437;-68
2023/03/30 01:38:55;;;;;;;1999.90;999.90;;;11.50;99.90;;;;;;5036479;28;20983;-70
2023/03/30 01:41:31;;;;;;;1999.90;999.90;;;11.40;99.90;;;;;;5045936;28;20429;-71
2023/03/30 01:44:02;;;;;;;1999.90;999.90;;;11.50;99.90;;;;;;5049360;28;20437;-70
2023/03/30 01:46:33;;;;;;;1999.90;999.90;;;11.40;99.90;;;;;;5037434;28;20855;-71
2023/03/30 01:49:10;;;;;;;1999.90;999.90;;;11.50;99.90;;;;;;5048711;28;20437;-71
2023/03/30 01:51:44;;;;;;;1999.90;999.90;;;11.50;99.90;;;;;;5047837;28;20510;-71
2023/03/30 01:54:18;;;;;;;1999.90;999.90;;;11.70;99.90;;;;;;5043023;28;20432;-70
2023/03/30 01:56:48;;;;;;;1999.90;999.90;;;11.90;99.90;;;;;;5037025;28;20426;-71
2023/03/30 01:59:20;;;;;;;1999.90;999.90;;;12.00;99.90;;;;;;5050634;28;20427;-69
2023/03/30 02:01:53;;;;;;;1999.90;999.90;;;12.40;99.90;;;;;;5050399;28;20429;-72
2023/03/30 02:04:23;;;;;;;1999.90;999.90;;;12.60;99.90;;;;;;5046281;28;20428;-70
2023/03/30 02:06:54;;;;;;;1999.90;999.90;;;12.80;99.90;;;;;;5037236;28;20869;-70
2023/03/30 02:09:24;;;;;;;1999.90;999.90;;;13.00;99.90;;;;;;5050223;28;20433;-71
2023/03/30 02:11:52;;;;;;;1999.90;999.90;;;13.00;99.90;;;;;;5047962;28;20433;-71
2023/03/30 02:14:26;;;;;;;1999.90;999.90;;;13.20;99.90;;;;;;5045692;28;20942;-67
2023/03/30 02:16:57;;;;;;;1999.90;999.90;;;13.40;99.90;;;;;;5038047;28;20844;-69
2023/03/30 02:19:24;;;;;;;1999.90;999.90;;;13.30;99.90;;;;;;5049171;28;20429;-71
2023/03/30 02:21:51;;;;;;;1999.90;999.90;;;13.00;99.90;;;;;;5050320;28;20494;-71
2023/03/30 02:24:21;;;;;;;1999.90;999.90;;;12.90;99.90;;;;;;5046065;28;20836;-70
2023/03/30 02:26:51;;;;;;;1999.90;999.90;;;12.70;99.90;;;;;;5037523;28;20458;-71
2023/03/30 02:29:19;;;;;;;1999.90;999.90;;;12.50;99.90;;;;;;5049751;28;20434;-71
2023/03/30 02:31:48;;;;;;;1999.90;999.90;;;12.50;99.90;;;;;;5049398;28;20429;-72
2023/03/30 02:34:20;;;;;;;1999.90;999.90;;;12.30;99.90;;;;;;5042182;28;20442;-71
2023/03/30 02:37:15;;;;;;;1999.90;999.90;;;12.30;99.90;;;;;;5036853;28;20423;-71
2023/03/30 02:39:54;;;;;;;1999.90;999.90;;;12.50;99.90;;;;;;5046834;28;20433;-72
2023/03/30 02:42:40;;;;;;;1999.90;999.90;;;12.60;99.90;;;;;;5049141;28;20433;-70
2023/03/30 02:45:19;;;;;;;1999.90;999.90;;;12.70;99.90;;;;;;5042999;28;20524;-70
2023/03/30 02:47:56;;;;;;;1999.90;999.90;;;12.90;99.90;;;;;;5041247;28;20425;-70
2023/03/30 02:50:32;;;;;;;1999.90;999.90;;;12.90;99.90;;;;;;5048667;28;20440;-70
2023/03/30 02:53:05;;;;;;;1999.90;999.90;;;12.80;99.90;;;;;;5048640;28;20438;-70
2023/03/30 02:55:35;;;;;;;1999.90;999.90;;;12.70;99.90;;;;;;5041663;28;20432;-71
2023/03/30 02:58:11;;;;;;;1999.90;999.90;;;12.70;99.90;;;;;;5043064;28;20499;-74
2023/03/30 03:00:43;;;;;;;1999.90;999.90;;;12.80;99.90;;;;;;5045404;28;20427;-71
2023/03/30 03:03:16;;;;;;;1999.90;999.90;;;12.90;99.90;;;;;;5048466;28;20460;-72
2023/03/30 03:05:44;;;;;;;1999.90;999.90;;;13.20;99.90;;;;;;5043331;28;20988;-72
2023/03/30 03:08:14;;;;;;;1999.90;999.90;;;13.10;99.90;;;;;;5041890;28;20921;-70
2023/03/30 03:10:41;;;;;;;1999.90;999.90;;;13.20;99.90;;;;;;5049522;28;20640;-70
2023/03/30 03:13:09;;;;;;;1999.90;999.90;;;13.20;99.90;;;;;;5049259;28;21358;-67
2023/03/30 03:15:36;;;;;;;1999.90;999.90;;;13.90;99.90;;;;;;5037486;28;20435;-72
2023/03/30 03:18:04;;;;;;;1999.90;999.90;;;13.60;99.90;;;;;;5043272;28;20796;-71
2023/03/30 03:20:31;;;;;;;1999.90;999.90;;;13.80;99.90;;;;;;5036541;28;20985;-73
2023/03/30 03:22:58;;;;;;;1999.90;999.90;;;13.90;99.90;;;;;;5038120;28;20508;-73
2023/03/30 03:25:24;;;;;;;1999.90;999.90;;;13.90;99.90;;;;;;5045788;28;20491;-71
2023/03/30 03:27:51;;;;;;;1999.90;999.90;;;13.90;99.90;;;;;;5044033;28;20427;-70
2023/03/30 03:30:19;;;;;;;1999.90;999.90;;;14.00;99.90;;;;;;5042188;28;20483;-72
2023/03/30 03:32:46;;;;;;;1999.90;999.90;;;14.10;99.90;;;;;;5036108;28;20427;-73
2023/03/30 03:35:13;;;;;;;1999.90;999.90;;;14.10;99.90;;;;;;5038506;28;21483;-71
2023/03/30 03:37:39;;;;;;;1999.90;999.90;;;14.00;99.90;;;;;;5046495;28;20827;-71
2023/03/30 03:40:08;;;;;;;1999.90;999.90;;;14.10;99.90;;;;;;5043961;28;22440;-71
2023/03/30 03:42:34;;;;;;;1999.90;999.90;;;14.10;99.90;;;;;;5043710;28;20440;-71
2023/03/30 03:45:01;;;;;;;1999.90;999.90;;;14.00;99.90;;;;;;5041986;28;20429;-70
2023/03/30 03:47:30;;;;;;;1999.90;999.90;;;14.10;99.90;;;;;;5047630;28;21005;-73
2023/03/30 03:49:57;;;;;;;1999.90;999.90;;;14.20;99.90;;;;;;5037048;28;20435;-71
2023/03/30 03:52:24;;;;;;;1999.90;999.90;;;14.30;99.90;;;;;;5043523;28;20813;-71
2023/03/30 03:54:51;;;;;;;1999.90;999.90;;;14.20;99.90;;;;;;5047707;28;20440;-72
2023/03/30 03:57:17;;;;;;;1999.90;999.90;;;14.30;99.90;;;;;;5047883;28;20845;-71
2023/03/30 03:59:44;;;;;;;1999.90;999.90;;;14.40;99.90;;;;;;5045654;28;20429;-71
2023/03/30 04:02:11;;;;;;;1999.90;999.90;;;14.40;99.90;;;;;;5036756;28;20506;-71
2023/03/30 04:04:39;;;;;;;1999.90;999.90;;;14.50;99.90;;;;;;5044455;28;20437;-72
2023/03/30 04:07:06;;;;;;;1999.90;999.90;;;14.40;99.90;;;;;;5046513;28;20422;-72
2023/03/30 04:09:33;;;;;;;1999.90;999.90;;;14.40;99.90;;;;;;5048061;28;20437;-71
2023/03/30 04:11:59;;;;;;;1999.90;999.90;;;14.40;99.90;;;;;;5046788;28;20429;-72
2023/03/30 04:14:26;;;;;;;1999.90;999.90;;;14.40;99.90;;;;;;5034647;28;20498;-71
2023/03/30 04:16:56;;;;;;;1999.90;999.90;;;14.40;99.90;;;;;;5044730;28;20591;-71
2023/03/30 04:19:24;;;;;;;1999.90;999.90;;;14.40;99.90;;;;;;5042295;28;20435;-71
2023/03/30 04:21:52;;;;;;;1999.90;999.90;;;14.40;99.90;;;;;;5048146;28;20937;-71
2023/03/30 04:24:18;;;;;;;1999.90;999.90;;;14.40;99.90;;;;;;5042267;28;20433;-71
2023/03/30 04:26:47;;;;;;;1999.90;999.90;;;14.40;99.90;;;;;;5038497;28;20481;-71
2023/03/30 04:29:15;;;;;;;1999.90;999.90;;;14.40;99.90;;;;;;5046131;28;20453;-71
2023/03/30 04:31:45;;;;;;;1999.90;999.90;;;14.40;99.90;;;;;;5048344;28;20475;-71
2023/03/30 04:34:12;;;;;;;1999.90;999.90;;;14.40;99.90;;;;;;5046140;28;20434;-71
2023/03/30 04:36:42;;;;;;;1999.90;999.90;;;14.40;99.90;;;;;;5047851;28;20436;-72
2023/03/30 04:39:10;;;;;;;1999.90;999.90;;;14.40;99.90;;;;;;5036202;28;20435;-70
2023/03/30 04:41:40;;;;;;;1999.90;999.90;;;14.50;99.90;;;;;;5047677;28;20464;-71
2023/03/30 04:44:09;;;;;;;1999.90;999.90;;;14.50;99.90;;;;;;5046846;28;20435;-71
2023/03/30 04:46:36;;;;;;;1999.90;999.90;;;14.60;99.90;;;;;;5047933;28;20490;-70
2023/03/30 04:49:04;;;;;;;1999.90;999.90;;;14.70;99.90;;;;;;5072677;22;20491;-67
2023/03/30 04:51:30;;;;;;;1999.90;999.90;;;14.70;99.90;;;;;;5063635;28;20500;-68
2023/03/30 04:53:57;;;;;;;1999.90;999.90;;;14.80;99.90;;;;;;5056571;28;20845;-67
2023/03/30 04:56:26;;;;;;;1999.90;999.90;;;14.80;99.90;;;;;;5053428;28;21055;-71
2023/03/30 04:58:53;;;;;;;1999.90;999.90;;;14.70;99.90;;;;;;5053392;28;20513;-69
2023/03/30 05:01:20;;;;;;;1999.90;999.90;;;14.80;99.90;;;;;;5058788;28;20832;-70
2023/03/30 05:03:47;;;;;;;1999.90;999.90;;;14.80;99.90;;;;;;5063795;28;20431;-71
2023/03/30 05:06:13;;;;;;;1999.90;999.90;;;14.80;99.90;;;;;;5060909;28;20442;-71
2023/03/30 05:08:40;;;;;;;1999.90;999.90;;;14.80;99.90;;;;;;5054139;28;20451;-69
2023/03/30 05:11:07;;;;;;;1999.90;999.90;;;14.80;99.90;;;;;;5059741;28;20441;-71
2023/03/30 05:13:35;;;;;;;1999.90;999.90;;;14.80;99.90;;;;;;5059750;28;20923;-71
2023/03/30 05:16:01;;;;;;;1999.90;999.90;;;14.80;99.90;;;;;;5064654;28;20431;-68
2023/03/30 05:18:28;;;;;;;1999.90;999.90;;;14.90;99.90;;;;;;5059417;28;20435;-68
2023/03/30 05:20:57;;;;;;;1999.90;999.90;;;14.90;99.90;;;;;;5053787;28;20960;-68
2023/03/30 05:23:25;;;;;;;1999.90;999.90;;;15.00;99.90;;;;;;5054910;28;20423;-71
2023/03/30 05:25:53;;;;;;;1999.90;999.90;;;14.90;99.90;;;;;;5063369;28;20492;-71
2023/03/30 05:28:20;;;;;;;1999.90;999.90;;;14.90;99.90;;;;;;5065613;28;20429;-68
2023/03/30 05:30:53;;;;;;;1999.90;999.90;;;14.90;99.90;;;;;;5053541;28;20440;-69
2023/03/30 05:33:20;;;;;;;1999.90;999.90;;;15.00;99.90;;;;;;5055905;28;20431;-69
2023/03/30 05:35:47;;;;;;;1999.90;999.90;;;15.00;99.90;;;;;;5058314;28;20520;-70
2023/03/30 05:38:14;;;;;;;1999.90;999.90;;;15.00;99.90;;;;;;5062915;28;20431;-71
2023/03/30 05:40:40;;;;;;;1999.90;999.90;;;15.00;99.90;;;;;;5062363;28;20512;-71
2023/03/30 05:43:07;;;;;;;1999.90;999.90;;;15.00;99.90;;;;;;5054049;28;20444;-70
2023/03/30 05:45:34;;;;;;;1999.90;999.90;;;15.00;99.90;;;;;;5059692;28;20431;-68
2023/03/30 05:48:02;;;;;;;1999.90;999.90;;;15.00;99.90;;;;;;5063808;28;20432;-71
2023/03/30 05:50:28;;;;;;;1999.90;999.90;;;15.00;99.90;;;;;;5056195;28;20435;-70
2023/03/30 05:52:55;;;;;;;1999.90;999.90;;;14.90;99.90;;;;;;5063226;28;20435;-71
2023/03/30 05:55:22;;;;;;;1999.90;999.90;;;14.90;99.90;;;;;;5065190;28;20439;-70
2023/03/30 05:57:49;;;;;;;1999.90;999.90;;;14.90;99.90;;;;;;5058186;28;20855;-69
2023/03/30 06:00:16;;;;;;;1999.90;999.90;;;14.80;99.90;;;;;;5060574;28;20431;-71
2023/03/30 06:02:43;;;;;;;1999.90;999.90;;;14.80;99.90;;;;;;5049922;28;20417;-70
2023/03/30 06:05:11;;;;;;;1999.90;999.90;;;14.80;99.90;;;;;;5049777;28;20512;-70
2023/03/30 06:07:38;;;;;;;1999.90;999.90;;;14.90;99.90;;;;;;5055920;28;20435;-70
2023/03/30 06:10:06;;;;;;;1999.90;999.90;;;15.00;99.90;;;;;;5058277;28;20417;-69
2023/03/30 06:12:33;;;;;;;1999.90;999.90;;;15.00;99.90;;;;;;5053259;28;20420;-70
2023/03/30 06:15:01;;;;;;;1999.90;999.90;;;15.10;99.90;;;;;;5053236;28;20887;-70
2023/03/30 06:17:28;;;;;;;1999.90;999.90;;;15.10;99.90;;;;;;5053027;28;20810;-69
2023/03/30 06:19:55;;;;;;;1999.90;999.90;;;15.20;99.90;;;;;;5062405;28;20487;-70
2023/03/30 06:22:23;;;;;;;1999.90;999.90;;;15.30;99.90;;;;;;5061429;28;20417;-71
2023/03/30 06:24:49;;;;;;;1999.90;999.90;;;15.40;99.90;;;;;;5052804;28;20467;-71
2023/03/30 06:27:16;;;;;;;1999.90;999.90;;;15.20;99.90;;;;;;5052858;28;20420;-70
2023/03/30 06:29:44;;;;;;;1999.90;999.90;;;15.30;99.90;;;;;;5053168;28;20437;-71
2023/03/30 06:32:10;;;;;;;1999.90;999.90;;;15.10;99.90;;;;;;5060402;28;20459;-70
2023/03/30 06:34:37;;;;;;;1999.90;999.90;;;15.20;99.90;;;;;;5053713;28;20413;-70
2023/03/30 06:37:03;;;;;;;1999.90;999.90;;;15.30;99.90;;;;;;5052921;28;20417;-70
2023/03/30 06:39:36;;;;;;;1999.90;999.90;;;15.40;99.90;;;;;;5052668;28;20475;-70
2023/03/30 06:42:02;;;;;;;1999.90;999.90;;;15.60;99.90;;;;;;5052933;28;20417;-71
2023/03/30 06:44:29;;;;;;;1999.90;999.90;;;15.70;99.90;;;;;;5061129;28;20435;-70
2023/03/30 06:46:56;;;;;;;1999.90;999.90;;;15.80;99.90;;;;;;5056324;28;20438;-70
2023/03/30 06:49:22;;;;;;;1999.90;999.90;;;15.90;99.90;;;;;;5062458;28;21101;-70
2023/03/30 06:51:49;;;;;;;1999.90;999.90;;;15.90;99.90;;;;;;5068857;28;20435;-70
2023/03/30 06:54:18;;;;;;;1999.90;999.90;;;16.10;99.90;;;;;;5064211;28;20432;-68
2023/03/30 06:56:46;;;;;;;1999.90;999.90;;;16.40;99.90;;;;;;5070455;28;20431;-68
2023/03/30 06:59:14;;;;;;;1999.90;999.90;;;16.60;99.90;;;;;;5062270;28;20428;-68
2023/03/30 07:01:41;;;;;;;1999.90;999.90;;;16.90;99.90;;;;;;5061915;28;20440;-70
2023/03/30 07:04:08;;;;;;;1999.90;999.90;;;17.20;99.90;;;;;;5063669;28;20431;-69
2023/03/30 07:06:35;;;;;;;1999.90;999.90;;;17.50;99.90;;;;;;5061986;28;20460;-70
2023/03/30 07:09:03;;;;;;;1999.90;999.90;;;17.80;99.90;;;;;;5068760;28;20913;-70
2023/03/30 07:11:29;;;;;;;1999.90;999.90;;;17.60;99.90;;;;;;5067623;28;20921;-69
2023/03/30 07:13:59;;;;;;;1999.90;999.90;;;17.40;99.90;;;;;;5060342;28;20429;-71
2023/03/30 07:16:26;;;;;;;1999.90;999.90;;;17.40;99.90;;;;;;5059722;28;20955;-70
2023/03/30 07:18:53;;;;;;;1999.90;999.90;;;17.50;99.90;;;;;;5059608;28;20844;-69
2023/03/30 07:21:20;;;;;;;1999.90;999.90;;;17.50;99.90;;;;;;5065703;28;20455;-68
2023/03/30 07:23:47;;;;;;;1999.90;999.90;;;17.50;99.90;;;;;;5057716;28;20425;-70
2023/03/30 07:26:13;;;;;;;1999.90;999.90;;;17.50;99.90;;;;;;5064388;28;20944;-70
2023/03/30 07:28:40;;;;;;;1999.90;999.90;;;17.50;99.90;;;;;;5067495;28;20801;-70
2023/03/30 07:31:12;;;;;;;1999.90;999.90;;;17.50;99.90;;;;;;5058076;28;20559;-70
2023/03/30 07:33:39;;;;;;;1999.90;999.90;;;17.50;99.90;;;;;;5062280;28;20453;-68
2023/03/30 07:36:07;;;;;;;1999.90;999.90;;;17.30;99.90;;;;;;5067343;28;20470;-68
2023/03/30 07:38:34;;;;;;;1999.90;999.90;;;17.30;99.90;;;;;;5063250;28;20425;-71
2023/03/30 07:41:00;;;;;;;1999.90;999.90;;;17.30;99.90;;;;;;5071802;28;20412;-70
2023/03/30 07:43:27;;;;;;;1999.90;999.90;;;17.20;99.90;;;;;;5071906;28;20544;-70
2023/03/30 07:45:53;;;;;;;1999.90;999.90;;;17.20;99.90;;;;;;5071684;28;20404;-67
2023/03/30 07:48:21;;;;;;;1999.90;999.90;;;17.10;99.90;;;;;;5062240;28;20426;-68
2023/03/30 07:50:48;;;;;;;1999.90;999.90;;;17.00;99.90;;;;;;5051441;28;20841;-69
2023/03/30 07:53:15;;;;;;;1999.90;999.90;;;16.70;99.90;;;;;;5051754;28;20405;-68
2023/03/30 07:55:41;;;;;;;1999.90;999.90;;;16.70;99.90;;;;;;5051519;28;20413;-67
2023/03/30 07:58:08;;;;;;;1999.90;999.90;;;16.60;99.90;;;;;;5053545;28;20523;-68
2023/03/30 08:00:34;;;;;;;1999.90;999.90;;;16.60;99.90;;;;;;5066198;28;20427;-68
2023/03/30 08:03:01;;;;;;;1999.90;999.90;;;16.80;99.90;;;;;;5069007;28;20427;-68
2023/03/30 08:05:30;;;;;;;1999.90;999.90;;;16.90;99.90;;;;;;5066528;28;20427;-70
2023/03/30 08:07:56;;;;;;;1999.90;999.90;;;16.90;99.90;;;;;;5065268;28;20453;-67
2023/03/30 08:10:23;;;;;;;1999.90;999.90;;;16.70;99.90;;;;;;5068245;28;20424;-67
2023/03/30 08:12:50;;;;;;;1999.90;999.90;;;16.50;99.90;;;;;;5067394;28;20513;-68
2023/03/30 08:15:16;;;;;;;1999.90;999.90;;;16.40;99.90;;;;;;5068381;28;20978;-67
2023/03/30 08:17:43;;;;;;;1999.90;999.90;;;16.30;99.90;;;;;;5065219;28;20439;-70
2023/03/30 08:20:11;;;;;;;1999.90;999.90;;;16.00;99.90;;;;;;5062095;28;20441;-70
2023/03/30 08:22:39;;;;;;;1999.90;999.90;;;16.10;99.90;;;;;;5060262;28;20413;-70
2023/03/30 08:25:06;;;;;;;1999.90;999.90;;;16.00;99.90;;;;;;5062391;28;20473;-70
2023/03/30 08:27:33;;;;;;;1999.90;999.90;;;16.00;99.90;;;;;;5052821;28;20818;-71
2023/03/30 08:29:59;;;;;;;1999.90;999.90;;;16.10;99.90;;;;;;5050778;28;20413;-70
2023/03/30 08:32:26;;;;;;;1999.90;999.90;;;16.10;99.90;;;;;;5050804;28;20436;-68
2023/03/30 08:34:53;;;;;;;1999.90;999.90;;;16.10;99.90;;;;;;5054241;28;20427;-69
2023/03/30 08:37:20;;;;;;;1999.90;999.90;;;16.00;99.90;;;;;;5062208;28;20497;-69
2023/03/30 08:39:48;;;;;;;1999.90;999.90;;;16.00;99.90;;;;;;5050880;28;20433;-68
2023/03/30 08:42:50;;;;;;;1999.90;999.90;;;15.90;99.90;;;;;;5050904;28;20413;-68
2023/03/30 08:45:17;;;;;;;1999.90;999.90;;;16.00;99.90;;;;;;5050665;28;21114;-69
2023/03/30 08:47:47;;;;;;;1999.90;999.90;;;16.00;99.90;;;;;;5057636;28;20510;-69
2023/03/30 08:50:17;;;;;;;1999.90;999.90;;;16.20;99.90;;;;;;5058547;28;20432;-69
2023/03/30 08:52:45;;;;;;;1999.90;999.90;;;16.40;99.90;;;;;;5050460;28;20421;-69
2023/03/30 08:55:23;;;;;;;1999.90;999.90;;;16.30;99.90;;;;;;5050309;28;20421;-69
2023/03/30 08:57:53;;;;;;;1999.90;999.90;;;16.30;99.90;;;;;;5050064;28;20851;-69
2023/03/30 09:00:31;;;;;;;1999.90;999.90;;;16.40;99.90;;;;;;5055261;28;20481;-70
2023/03/30 09:03:07;;;;;;;1999.90;999.90;;;16.40;99.90;;;;;;5062897;28;20419;-69
2023/03/30 09:05:40;;;;;;;1999.90;999.90;;;16.50;99.90;;;;;;5067752;28;20844;-69
2023/03/30 09:08:14;;;;;;;1999.90;999.90;;;16.70;99.90;;;;;;5063607;28;20430;-70
2023/03/30 09:10:47;;;;;;;1999.90;999.90;;;16.60;99.90;;;;;;5059236;28;20465;-69
2023/03/30 09:13:17;;;;;;;1999.90;999.90;;;16.50;99.90;;;;;;5060398;28;20486;-69
2023/03/30 09:15:48;;;;;;;1999.90;999.90;;;16.50;99.90;;;;;;5050958;28;20471;-70
2023/03/30 09:18:21;;;;;;;1999.90;999.90;;;16.50;99.90;;;;;;5049809;28;20985;-69
2023/03/30 09:20:50;;;;;;;1999.90;999.90;;;16.50;99.90;;;;;;5050168;28;20492;-69
2023/03/30 09:23:18;;;;;;;1999.90;999.90;;;16.50;99.90;;;;;;5050590;28;20412;-69
2023/03/30 09:25:52;;;;;;;1999.90;999.90;;;16.40;99.90;;;;;;5059322;28;20469;-69
2023/03/30 09:28:23;;;;;;;1999.90;999.90;;;16.40;99.90;;;;;;5049807;28;20512;-69
2023/03/30 09:30:54;;;;;;;1999.90;999.90;;;16.50;99.90;;;;;;5050198;28;20826;-70
2023/03/30 09:33:30;;;;;;;1999.90;999.90;;;16.50;99.90;;;;;;5049747;28;20477;-69
2023/03/30 09:36:06;;;;;;;1999.90;999.90;;;16.70;99.90;;;;;;5062569;28;21306;-69
2023/03/30 09:38:33;;;;;;;1999.90;999.90;;;16.90;99.90;;;;;;5063695;28;20429;-70
2023/03/30 09:41:21;;;;;;;1999.90;999.90;;;17.40;99.90;;;;;;5067970;28;20999;-69
2023/03/30 09:43:50;;;;;;;1999.90;999.90;;;17.70;99.90;;;;;;5062791;28;20428;-69
2023/03/30 09:46:17;;;;;;;1999.90;999.90;;;17.60;99.90;;;;;;5068475;28;20443;-68
2023/03/30 09:48:45;;;;;;;1999.90;999.90;;;17.70;99.90;;;;;;5067739;28;20428;-69
2023/03/30 09:51:24;;;;;;;1999.90;999.90;;;17.60;99.90;;;;;;5069349;28;20561;-69
2023/03/30 09:53:54;;;;;;;1999.90;999.90;;;17.70;99.90;;;;;;5062082;28;20829;-70
2023/03/30 09:56:30;;;;;;;1999.90;999.90;;;17.70;99.90;;;;;;5063099;28;20433;-68
2023/03/30 09:58:56;;;;;;;1999.90;999.90;;;17.80;99.90;;;;;;5063433;28;20458;-68
2023/03/30 10:01:36;;;;;;;1999.90;999.90;;;17.70;99.90;;;;;;5063547;28;20478;-70
2023/03/30 10:04:08;;;;;;;1999.90;999.90;;;17.90;99.90;;;;;;5061552;28;20440;-68
2023/03/30 10:06:38;;;;;;;1999.90;999.90;;;17.60;99.90;;;;;;5066857;28;20430;-69
2023/03/30 10:09:11;;;;;;;1999.90;999.90;;;17.60;99.90;;;;;;5070352;28;20419;-69
2023/03/30 10:11:42;;;;;;;1999.90;999.90;;;17.60;99.90;;;;;;5070325;28;20492;-70
2023/03/30 10:14:28;;;;;;;1999.90;999.90;;;17.90;99.90;;;;;;5062950;28;20416;-69
2023/03/30 10:16:55;;;;;;;1999.90;999.90;;;18.20;99.90;;;;;;5070700;28;20464;-68
2023/03/30 10:19:23;;;;;;;1999.90;999.90;;;18.20;99.90;;;;;;5068967;28;20433;-68
2023/03/30 10:21:54;;;;;;;1999.90;999.90;;;18.40;99.90;;;;;;5070602;28;20933;-68
2023/03/30 10:24:23;;;;;;;1999.90;999.90;;;18.50;99.90;;;;;;5064257;28;20480;-69
2023/03/30 10:26:53;;;;;;;1999.90;999.90;;;18.50;99.90;;;;;;5068524;28;20427;-69
2023/03/30 10:29:22;;;;;;;1999.90;999.90;;;18.40;99.90;;;;;;5068665;28;20925;-69
2023/03/30 10:31:53;;;;;;;1999.90;999.90;;;18.40;99.90;;;;;;5068216;28;20428;-69
2023/03/30 10:34:28;;;;;;;1999.90;999.90;;;18.30;99.90;;;;;;5066081;28;20454;-70
2023/03/30 10:36:54;;;;;;;1999.90;999.90;;;18.40;99.90;;;;;;5065036;28;20486;-69
2023/03/30 10:39:25;;;;;;;1999.90;999.90;;;18.70;99.90;;;;;;5065624;28;20858;-70
2023/03/30 10:41:54;;;;;;;1999.90;999.90;;;18.70;99.90;;;;;;5068163;28;20435;-70
2023/03/30 10:44:25;;;;;;;1999.90;999.90;;;18.90;99.90;;;;;;5067055;28;20956;-70
2023/03/30 10:47:00;;;;;;;1999.90;999.90;;;18.50;99.90;;;;;;5067719;28;20437;-68
2023/03/30 10:49:39;;;;;;;1999.90;999.90;;;18.40;99.90;;;;;;5068594;28;20420;-70
2023/03/30 10:52:12;;;;;;;1999.90;999.90;;;18.70;99.90;;;;;;5066093;28;22062;-69
2023/03/30 10:54:42;;;;;;;1999.90;999.90;;;18.40;99.90;;;;;;5060034;28;20474;-66
2023/03/30 10:57:13;;;;;;;1999.90;999.90;;;18.50;99.90;;;;;;5065843;28;20412;-66
2023/03/30 11:00:19;;;;;;;1999.90;999.90;;;18.50;99.90;;;;;;5072394;28;20477;-65
2023/03/30 11:02:54;;;;;;;1999.90;999.90;;;18.30;99.90;;;;;;5062134;28;20545;-66
2023/03/30 11:05:25;;;;;;;1999.90;999.90;;;18.50;99.90;;;;;;5068930;28;20431;-65
2023/03/30 11:07:56;;;;;;;1999.90;999.90;;;18.70;99.90;;;;;;5066456;28;20435;-65
2023/03/30 11:10:30;;;;;;;1999.90;999.90;;;18.90;99.90;;;;;;5052051;28;20949;-65
2023/03/30 11:13:01;;;;;;;1999.90;999.90;;;18.80;99.90;;;;;;5052223;28;20888;-66
2023/03/30 11:15:31;;;;;;;1999.90;999.90;;;19.10;99.90;;;;;;5052204;28;20418;-65
2023/03/30 11:18:04;;;;;;;1999.90;999.90;;;19.00;99.90;;;;;;5057787;28;20465;-66
2023/03/30 11:20:34;;;;;;;1999.90;999.90;;;19.00;99.90;;;;;;5055977;28;20425;-66
2023/03/30 11:23:12;;;;;;;1999.90;999.90;;;19.10;99.90;;;;;;5060612;28;20529;-66
2023/03/30 11:25:48;;;;;;;1999.90;999.90;;;18.70;99.90;;;;;;5069122;28;20420;-66
2023/03/30 11:28:24;;;;;;;1999.90;999.90;;;18.40;99.90;;;;;;5066866;28;20681;-66
2023/03/30 11:30:54;;;;;;;1999.90;999.90;;;18.50;99.90;;;;;;5069473;28;21045;-65
2023/03/30 11:33:29;;;;;;;1999.90;999.90;;;18.60;99.90;;;;;;5065574;28;20463;-66
2023/03/30 11:36:00;;;;;;;1999.90;999.90;;;18.80;99.90;;;;;;5068891;28;20526;-67
2023/03/30 11:38:33;;;;;;;1999.90;999.90;;;18.70;99.90;;;;;;5068086;28;20933;-65
2023/03/30 11:41:05;;;;;;;1999.90;999.90;;;18.70;99.90;;;;;;5067492;28;20428;-66
2023/03/30 11:43:33;;;;;;;1999.90;999.90;;;18.50;99.90;;;;;;5067558;28;20774;-66
2023/03/30 11:46:03;;;;;;;1999.90;999.90;;;18.60;99.90;;;;;;5069013;28;20817;-69
2023/03/30 11:48:54;;;;;;;1999.90;999.90;;;18.70;99.90;;;;;;5066172;28;20435;-68
2023/03/30 11:51:43;;;;;;;1999.90;999.90;;;18.70;99.90;;;;;;5065144;28;20427;-66
2023/03/30 11:54:28;;;;;;;1999.90;999.90;;;18.20;99.90;;;;;;5067676;28;20427;-66
2023/03/30 11:57:06;;;;;;;1999.90;999.90;;;18.10;99.90;;;;;;5068060;28;20485;-66
2023/03/30 11:59:43;;;;;;;1999.90;999.90;;;17.20;99.90;;;;;;5064508;28;20489;-65
2023/03/30 12:02:22;;;;;;;1999.90;999.90;;;15.40;99.90;;;;;;5063387;28;20431;-66
2023/03/30 12:04:52;;;;;;;1999.90;999.90;;;14.30;99.90;;;;;;5067621;28;20448;-66
2023/03/30 12:07:31;;;;;;;1999.90;999.90;;;13.60;99.90;;;;;;5067954;28;20929;-66
2023/03/30 12:10:02;;;;;;;1999.90;999.90;;;13.40;99.90;;;;;;5066801;28;20983;-66
2023/03/30 12:12:33;;;;;;;1999.90;999.90;;;13.30;99.90;;;;;;5068865;28;20443;-65
2023/03/30 12:15:21;;;;;;;1999.90;999.90;;;13.10;99.90;;;;;;5068251;28;20855;-66